createdAt,value
2018-09-04T00:02:26.146Z,19.30
2018-09-04T00:07:29.249Z,19.20
2018-09-04T00:12:32.333Z,19.10
2018-09-04T00:17:35.417Z,19.00
2018-09-04T00:22:38.533Z,19.00
2018-09-04T00:27:41.629Z,18.90
2018-09-04T00:32:44.712Z,18.90
2018-09-04T00:37:47.798Z,18.80
2018-09-04T00:42:50.873Z,18.80
2018-09-04T00:47:53.949Z,18.70
2018-09-04T00:52:57.053Z,18.70
2018-09-04T00:58:00.126Z,18.60
2018-09-04T01:03:03.228Z,18.60
2018-09-04T01:08:06.333Z,18.50
2018-09-04T01:13:09.413Z,18.40
2018-09-04T01:18:12.504Z,18.40
2018-09-04T01:23:15.586Z,18.40
2018-09-04T01:28:18.666Z,18.40
2018-09-04T01:33:21.754Z,18.30
2018-09-04T01:38:24.857Z,18.30
2018-09-04T01:43:27.943Z,18.30
2018-09-04T02:04:56.330Z,18.00
2018-09-04T02:09:59.413Z,17.90
2018-09-04T02:15:02.516Z,17.90
2018-09-04T02:20:06.030Z,17.80
2018-09-04T02:25:09.486Z,17.60
2018-09-04T02:30:12.571Z,17.60
2018-09-04T02:35:15.703Z,17.50
2018-09-04T02:40:18.802Z,17.40
2018-09-04T02:45:21.890Z,17.30
2018-09-04T02:50:24.989Z,17.20
2018-09-04T02:55:28.078Z,17.20
2018-09-04T03:00:31.181Z,17.10
2018-09-04T03:05:34.253Z,17.10
2018-09-04T03:10:37.342Z,17.10
2018-09-04T03:15:40.448Z,17.10
2018-09-04T03:20:43.556Z,17.00
2018-09-04T03:25:46.648Z,17.00
2018-09-04T03:30:49.970Z,17.00
2018-09-04T03:35:53.061Z,16.90
2018-09-04T03:40:56.180Z,16.90
2018-09-04T03:45:59.277Z,16.80
2018-09-04T03:51:02.370Z,16.70
2018-09-04T03:56:05.457Z,16.70
2018-09-04T04:01:08.530Z,16.60
2018-09-04T04:06:11.624Z,16.50
2018-09-04T04:11:14.719Z,16.50
2018-09-04T04:16:17.832Z,16.40
2018-09-04T04:21:20.947Z,16.40
2018-09-04T04:26:24.029Z,16.30
2018-09-04T04:31:27.112Z,16.30
2018-09-04T04:36:30.225Z,16.30
2018-09-04T04:41:33.310Z,16.30
2018-09-04T04:46:37.189Z,16.40
2018-09-04T04:51:40.282Z,16.40
2018-09-04T04:56:43.375Z,16.40
2018-09-04T05:01:46.465Z,16.40
2018-09-04T05:06:49.562Z,16.40
2018-09-04T05:11:52.666Z,16.40
2018-09-04T05:16:55.753Z,16.40
2018-09-04T05:21:58.844Z,16.50
2018-09-04T05:27:02.005Z,16.50
2018-09-04T05:32:11.076Z,16.50
2018-09-04T05:37:15.107Z,16.60
2018-09-04T05:42:27.565Z,16.60
2018-09-04T06:03:55.595Z,17.00
2018-09-04T06:08:58.682Z,17.10
2018-09-04T06:14:01.777Z,17.10
2018-09-04T06:19:04.995Z,17.20
2018-09-04T06:24:08.105Z,17.20
2018-09-04T06:29:11.189Z,17.30
2018-09-04T06:34:14.322Z,17.30
2018-09-04T06:39:17.397Z,17.40
2018-09-04T06:44:20.492Z,17.50
2018-09-04T06:49:23.593Z,17.60
2018-09-04T06:54:26.728Z,17.70
2018-09-04T06:59:29.795Z,17.70
2018-09-04T07:20:57.752Z,18.00
2018-09-04T07:26:00.859Z,18.00
2018-09-04T07:31:03.954Z,18.10
2018-09-04T07:36:07.074Z,18.20
2018-09-04T07:41:10.176Z,18.30
2018-09-04T07:46:13.253Z,18.40
2018-09-04T07:51:16.356Z,18.50
2018-09-04T07:56:19.456Z,18.60
2018-09-04T08:01:22.561Z,18.70
2018-09-04T08:06:25.647Z,18.80
2018-09-04T08:11:28.975Z,18.90
2018-09-04T08:16:32.071Z,19.10
2018-09-04T08:21:35.894Z,19.30
2018-09-04T08:26:38.974Z,19.40
2018-09-04T08:31:42.057Z,19.60
2018-09-04T08:36:51.862Z,19.70
2018-09-04T08:41:54.950Z,19.90
2018-09-04T08:46:58.034Z,20.10
2018-09-04T08:52:01.110Z,20.30
2018-09-04T08:57:04.251Z,20.50
2018-09-04T09:02:07.331Z,20.80
2018-09-04T09:07:10.440Z,21.00
2018-09-04T09:12:13.546Z,21.30
2018-09-04T09:17:16.636Z,21.60
2018-09-04T09:22:20.169Z,21.90
2018-09-04T09:27:23.322Z,22.30
2018-09-04T09:32:26.414Z,22.60
2018-09-04T09:37:29.511Z,23.10
2018-09-04T09:42:32.588Z,23.50
2018-09-04T09:47:39.956Z,24.00
2018-09-04T09:52:43.102Z,24.50
2018-09-04T09:57:46.166Z,24.90
2018-09-04T10:02:51.429Z,25.40
2018-09-04T10:07:54.676Z,25.80
2018-09-04T10:12:57.616Z,26.30
2018-09-04T10:18:00.702Z,26.70
2018-09-04T10:23:03.793Z,27.10
2018-09-04T10:28:06.874Z,27.60
2018-09-04T10:33:09.975Z,27.90
2018-09-04T10:43:22.613Z,28.70
2018-09-04T10:48:26.470Z,29.00
2018-09-04T10:53:29.553Z,29.30
2018-09-04T10:58:32.652Z,29.50
2018-09-04T11:03:35.753Z,29.90
2018-09-04T11:08:38.838Z,30.20
2018-09-04T11:13:41.937Z,30.50
2018-09-04T11:18:45.017Z,30.50
2018-09-04T11:23:48.174Z,30.50
2018-09-04T11:28:54.921Z,30.70
2018-09-04T11:33:58.007Z,30.80
2018-09-04T11:39:01.093Z,31.10
2018-09-04T12:00:33.725Z,31.40
2018-09-04T12:05:36.826Z,31.40
2018-09-04T12:10:40.442Z,31.60
2018-09-04T12:15:43.556Z,31.60
2018-09-04T12:20:49.073Z,31.60
2018-09-04T12:25:53.545Z,31.80
2018-09-04T12:30:57.103Z,31.90
2018-09-04T12:36:00.194Z,32.10
2018-09-04T12:41:06.875Z,32.20
2018-09-04T12:46:09.950Z,32.20
2018-09-04T12:51:13.049Z,32.30
2018-09-04T12:56:16.178Z,32.30
2018-09-04T13:01:19.367Z,32.50
2018-09-04T13:06:22.462Z,32.60
2018-09-04T13:11:25.558Z,32.40
2018-09-04T13:16:28.658Z,32.60
2018-09-04T13:21:31.754Z,32.40
2018-09-04T13:26:34.849Z,32.40
2018-09-04T13:48:23.845Z,32.80
2018-09-04T13:53:27.429Z,32.90
2018-09-04T13:58:30.525Z,32.80
2018-09-04T14:03:33.626Z,32.40
2018-09-04T14:08:36.715Z,32.30
2018-09-04T14:13:39.806Z,32.20
2018-09-04T14:18:42.959Z,32.30
2018-09-04T14:23:46.076Z,32.30
2018-09-04T14:29:06.431Z,32.40
2018-09-04T14:50:16.622Z,31.50
2018-09-04T14:55:19.718Z,31.40
2018-09-04T15:00:22.830Z,31.20
2018-09-04T15:05:25.914Z,31.10
2018-09-04T15:26:53.146Z,30.70
2018-09-04T15:32:39.662Z,30.60
2018-09-04T15:37:42.741Z,30.50
2018-09-04T15:42:45.862Z,30.30
2018-09-04T15:47:48.953Z,30.00
2018-09-04T15:52:52.037Z,29.80
2018-09-04T15:57:55.128Z,29.70
2018-09-04T16:02:58.257Z,29.40
2018-09-04T16:08:01.335Z,29.00
2018-09-04T16:13:04.421Z,28.70
2018-09-04T16:18:07.648Z,28.40
2018-09-04T16:23:10.734Z,28.00
2018-09-04T16:28:13.816Z,27.80
2018-09-04T16:33:16.929Z,27.60
2018-09-04T16:38:20.038Z,27.30
2018-09-04T16:43:23.141Z,26.90
2018-09-04T16:48:26.233Z,26.70
2018-09-04T16:53:31.009Z,26.40
2018-09-04T16:58:34.474Z,26.20
2018-09-04T17:03:37.704Z,25.90
2018-09-04T17:08:41.154Z,25.60
2018-09-04T17:13:44.257Z,25.30
2018-09-04T17:18:47.685Z,25.00
2018-09-04T17:23:50.835Z,24.80
2018-09-04T17:28:54.506Z,24.60
2018-09-04T17:33:58.500Z,24.50
2018-09-04T17:39:01.582Z,24.30
2018-09-04T17:44:05.044Z,24.10
2018-09-04T17:49:08.546Z,24.00
2018-09-04T17:54:11.677Z,23.80
2018-09-04T17:59:15.326Z,23.60
2018-09-04T18:04:18.797Z,23.50
2018-09-04T18:09:22.230Z,23.30
2018-09-04T18:14:32.136Z,23.10
2018-09-04T18:19:35.849Z,23.00
2018-09-04T18:24:39.657Z,22.80
2018-09-04T18:29:42.874Z,22.70
2018-09-04T18:34:46.216Z,22.60
2018-09-04T18:39:49.345Z,22.50
2018-09-04T18:44:53.034Z,22.30
2018-09-04T18:49:56.134Z,22.20
2018-09-04T18:54:59.944Z,22.00
2018-09-04T19:00:03.558Z,21.80
2018-09-04T19:05:06.753Z,21.70
2018-09-04T19:10:10.402Z,21.50
2018-09-04T19:15:13.728Z,21.30
2018-09-04T19:20:17.353Z,21.20
2018-09-04T19:25:20.535Z,21.10
2018-09-04T19:30:23.923Z,20.90
2018-09-04T19:35:27.688Z,20.80
2018-09-04T19:40:31.317Z,20.70
2018-09-04T19:45:34.627Z,20.60
2018-09-04T19:50:37.718Z,20.50
2018-09-04T19:55:40.916Z,20.40
2018-09-04T20:00:44.112Z,20.40
2018-09-04T20:05:47.872Z,20.30
2018-09-04T20:10:51.168Z,20.20
2018-09-04T20:15:54.977Z,20.10
2018-09-04T20:20:58.338Z,20.00
2018-09-04T20:26:01.792Z,20.00
2018-09-04T20:31:07.428Z,19.90
2018-09-04T20:36:11.098Z,19.90
2018-09-04T20:41:14.634Z,19.80
2018-09-04T20:46:18.028Z,19.80
2018-09-04T20:51:21.211Z,19.70
2018-09-04T20:56:24.339Z,19.70
2018-09-04T21:01:39.146Z,19.70
2018-09-04T21:06:48.642Z,19.70
2018-09-04T21:11:51.755Z,19.60
2018-09-04T21:16:54.908Z,19.50
2018-09-04T21:21:58.043Z,19.50
2018-09-04T21:27:01.150Z,19.40
2018-09-04T21:32:04.253Z,19.20
2018-09-04T21:37:07.362Z,19.10
2018-09-04T21:42:10.509Z,19.00
2018-09-04T21:47:13.641Z,18.90
2018-09-04T21:52:16.757Z,18.80
2018-09-04T21:57:20.122Z,18.70
2018-09-04T22:02:23.239Z,18.60
2018-09-04T22:07:26.342Z,18.50
2018-09-04T22:12:29.454Z,18.50
2018-09-04T22:17:32.577Z,18.30
2018-09-04T22:22:35.723Z,18.30
2018-09-04T22:27:39.845Z,18.20
2018-09-04T22:32:42.965Z,18.10
2018-09-04T22:37:46.081Z,18.10
2018-09-04T22:42:49.194Z,18.00
2018-09-04T22:47:52.293Z,17.90
2018-09-04T22:52:55.420Z,17.90
2018-09-04T22:57:58.582Z,17.80
2018-09-04T23:03:01.670Z,17.70
2018-09-04T23:08:04.792Z,17.60
2018-09-04T23:13:07.905Z,17.50
2018-09-04T23:18:11.869Z,17.50
2018-09-04T23:23:14.983Z,17.40
2018-09-04T23:28:18.104Z,17.30
2018-09-04T23:33:21.195Z,17.20
2018-09-04T23:38:24.306Z,17.10
2018-09-04T23:43:27.423Z,17.00
2018-09-04T23:48:30.542Z,17.00
2018-09-04T23:53:33.749Z,16.90
2018-09-04T23:58:36.875Z,16.90
